Tommaso Sorrentino

Olheiro-Chefe - Como
8 Jan 2030
Terça-feira
Processo

Personalidade

Adaptabilidade (1) Ambição (16) Controvérsia (19) Lealdade (4) Pressão (12) Profissionalismo (16) Espírito Esportivo (10) Temperamento (2)

Perfil

Estilo de Treinamento Democrático
Licença Nacional A
Determinação 5
Gestão de Pessoas 12
Motivação 8
Disciplina 10
Satisfação no Trabalho
100%
Fadiga
0%
Função Olheiro-Chefe
Salário 64.6K p/s
Contrato 14.03.2030

Desempenho

Comportamento Bom
Eficácia do Treinamento
41%
Desenvolvimento do Jogador
50%
Prevenção de Lesões
55%
Implementação Tática
25%

Eventos Recentes

Negociação de contrato iniciada agora
Participou de uma reunião de recrutamento agora
Participou de uma reunião de recrutamento agora
Avaliou um jogador 7d atrás
Negociação de contrato iniciada 7d atrás
Negociação de contrato iniciada 7d atrás
Negociação de contrato iniciada 7d atrás
Negociação de contrato iniciada 7d atrás

Monitorando agora

86
Jogador Clube Status Habilidade Confiança Observado Última observação Último voto
Djibril Coulibaly Paris FC Ativo 122 / 131 40% 2 02.01.2030 -
Yuel Helafu Sunderland Ativo 112 / 119 40% 1 02.01.2030 -
Sam Alabi Newcastle United Ativo 116 / 129 40% 1 02.01.2030 -
Kaden Braithwaite Fleetwood Town Ativo 115 / 116 40% 2 21.08.2029 -
Nathan De Cat RB Leipzig Ativo 138 / 148 40% 1 21.08.2029 -
Miguel Agámez Junior Ativo 103 / 113 40% 1 21.08.2029 -
Paolo Ceppi Juventus Ativo 107 / 118 40% 1 13.08.2029 -
Peyton Miller LA Galaxy Ativo 127 / 121 40% 1 13.08.2029 -
Alessio Insignito Spezia Ativo 112 / 116 40% 1 13.08.2029 -
Andrey Santos Norwich City Ativo 164 / 156 40% 1 06.08.2029 -
Tyreece Campbell Charlton Athletic Ativo 132 / 134 40% 1 06.08.2029 -
Louis Page Hull City Ativo 143 / 144 40% 3 23.07.2029 -
Cristian Orozco Manchester United Ativo 115 / 117 40% 1 23.07.2029 -
Axel Tape TSG Hoffenheim Ativo 144 / 148 40% 1 23.07.2029 -
Vincenzo Prisco Napoli Ativo 106 / 126 40% 1 16.07.2029 -
Mor Talla Ndiaye Liverpool Ativo 124 / 123 40% 1 02.07.2029 -
Jun'ai Byfield Tottenham Ativo 127 / 130 40% 1 25.06.2029 -
Landon Emenalo Chelsea Ativo 115 / 122 40% 1 25.06.2029 -
Miguel Figueiredo Benfica Ativo 133 / 132 40% 5 20.06.2029 -
Stephen Mfuni Brighton Ativo 140 / 141 40% 1 20.06.2029 -
Rouven Tarnutzer SC Freiburg Ativo 123 / 121 40% 1 18.06.2029 -
Moncef Zekri Sporting CP Ativo 117 / 118 40% 1 18.06.2029 -
Saba Kharebashvili Besiktas Ativo 128 / 145 40% 1 18.06.2029 -
Nejc Viher NK Maribor Ativo 118 / 132 40% 2 11.06.2029 -
Davinchi Valencia Ativo 122 / 130 40% 1 11.06.2029 -
Elvis van der Laan Groningen Ativo 115 / 119 40% 1 07.06.2029 -
Darryl Bakola Sassuolo Ativo 129 / 125 40% 1 07.06.2029 -
Trey Nyoni Liverpool Ativo 152 / 151 40% 1 06.06.2029 -
Bernardo Lima Porto Ativo 117 / 124 40% 3 05.06.2029 -
Chris Rigg Bournemouth Ativo 146 / 147 40% 1 05.06.2029 -
Daniel Banjaqui Benfica Ativo 137 / 135 40% 2 04.06.2029 -
Tom Raiani FC Nantes Ativo 111 / 119 40% 1 04.06.2029 -
Felipe Pujol Real Sociedad Ativo 110 / 125 40% 1 04.06.2029 -
Wesley Okoduwa Wolverhampton Ativo 107 / 114 40% 1 04.06.2029 -
Daniel Costa Sporting CP Ativo 105 / 120 40% 1 04.06.2029 -
Jim Thwaites Manchester United Ativo 126 / 129 40% 1 01.06.2029 -
Rafael Quintas Benfica Ativo 110 / 117 40% 1 09.01.2029 -
Bendito Mantato Manchester United Ativo 119 / 121 40% 1 09.01.2029 -
Celías Ingenthron River Plate Ativo 126 / 130 40% 1 09.01.2029 -
Ayyoub Bouaddi West Bromwich Albion Ativo 151 / 157 40% 2 08.01.2029 -
Wout Gielen Juventus Ativo 116 / 121 40% 1 08.01.2029 -
Guy Noël Zohouri OGC Nice Ativo 122 / 135 40% 2 07.01.2029 -
Alfie Cresswell Chesterfield Ativo 108 / 110 40% 2 07.01.2029 -
Rafael Mota Sporting CP Ativo 119 / 127 40% 3 02.01.2029 -
Sergio Martínez Valladolid Ativo 128 / 123 40% 1 02.01.2029 -
Josh King Fulham Ativo 152 / 148 40% 3 18.07.2028 -
Adem Avdić TSC Ativo 115 / 119 40% 2 04.07.2028 -
Harry Amass Manchester United Ativo 146 / 146 40% 4 30.06.2028 -
Lennon Miller Udinese Ativo 133 / 141 40% 1 30.06.2028 -
Grady Makiobo Juventus Ativo 103 / 121 40% 1 19.06.2028 -
Patrice Čović Werder Bremen Ativo 128 / 128 40% 1 10.06.2028 -
Jorthy Mokio Ajax Ativo 138 / 136 40% 2 08.06.2028 -
Lorenzo Carissoni Padova Ativo 126 / 125 62% 1 01.06.2028 Aprovar
Joane Gadou Borussia Dortmund Ativo 129 / 138 40% 1 01.06.2028 -
André Fluminense Ativo 122 / 137 40% 2 24.01.2028 -
Agustín Medina River Plate Ativo 125 / 128 40% 2 21.01.2028 -
Noa Mikić HNK Gorica Ativo 110 / 122 40% 1 20.01.2028 -
Juan Giménez Rosario Central Ativo 110 / 128 40% 1 19.01.2028 -
Felipe Obradovich Gimnasia La Plata Ativo 116 / 112 40% 1 17.01.2028 -
Jorrel Hato Chelsea Ativo 160 / 157 40% 2 06.01.2028 -
Martim Fernandes Porto Ativo 140 / 147 40% 1 03.01.2028 -
Caleb Yirenkyi Coventry City Ativo 147 / 148 40% 2 02.01.2028 -
Sascha Britschgi Udinese Ativo 112 / 133 40% 1 24.08.2027 -
Honest Ahanor Udinese Ativo 130 / 135 40% 4 20.08.2027 -
Juan Manuel Villalba Estudiantes Ativo 119 / 122 40% 1 16.08.2027 -
Matvey Bardachev Zenit Ativo 120 / 118 40% 1 13.08.2027 -
Luc Dabrowski Köln Ativo 98 / 111 40% 2 08.08.2027 -
Mirko Bruno Vélez Ativo 106 / 112 40% 1 06.08.2027 -
Mohamed Seck AS Roma Ativo 108 / 111 40% 1 30.07.2027 -
Enzo Cardozo Defensa y Justicia Ativo 112 / 109 40% 1 25.07.2027 -
Luca Raffin Rosario Central Ativo 104 / 108 40% 1 20.07.2027 -
Maxim Dal Mainz 05 Ativo 95 / 108 40% 1 20.07.2027 -
Bahia Santos Ativo 119 / 117 40% 1 15.07.2027 -
Pablo Aguiar Lanús Ativo 98 / 112 40% 1 10.07.2027 -
David Santos Daiber Bayern Munich Ativo 118 / 121 40% 3 28.06.2027 -
Thato Sibiya Mamelodi Sundowns Ativo 102 / 124 40% 1 14.06.2027 -
Matías Gómez Independiente Ativo 103 / 116 40% 2 11.06.2027 -
Alessandro Riccio Sampdoria Ativo 117 / 121 62% 1 06.06.2027 Aprovar
Jan Ziółkowski Bologna Ativo 127 / 134 40% 3 24.01.2027 -
Manuel Cicconi Sampdoria Ativo 126 / 115 58% 1 18.01.2027 -
Kyriani Sabbe Club Brugge Ativo 128 / 133 40% 1 12.01.2027 -
Ignacio Perruzzi San Lorenzo Ativo 120 / 123 40% 1 05.01.2027 -
Mauricio Amaro Atlanta United FC Ativo 138 / 137 40% 1 04.01.2027 -
José Pachuca Puebla Ativo 93 / 118 40% 1 31.08.2026 -
Sebastian Otoa Genoa Ativo 123 / 130 55% 1 17.08.2026 Observar
Giovanni Simeone Torino Ativo 142 / 129 40% 1 02.08.2026 -